sensor_id;sensor_type;location;lat;lon;timestamp;temperature;humidity
20345;DHT22;10330;48.816;9.278;2023-05-07T00:29:07;15.80;99.90
20345;DHT22;10330;48.816;9.278;2023-05-07T01:15:21;15.30;99.90
20345;DHT22;10330;48.816;9.278;2023-05-07T01:18:01;15.30;99.90
20345;DHT22;10330;48.816;9.278;2023-05-07T01:25:36;15.20;99.90
20345;DHT22;10330;48.816;9.278;2023-05-07T01:28:16;15.10;99.90
20345;DHT22;10330;48.816;9.278;2023-05-07T01:52:54;14.90;99.90
20345;DHT22;10330;48.816;9.278;2023-05-07T02:07:59;14.80;99.90
20345;DHT22;10330;48.816;9.278;2023-05-07T02:11:09;14.80;99.90
20345;DHT22;10330;48.816;9.278;2023-05-07T02:17:30;14.70;99.90
20345;DHT22;10330;48.816;9.278;2023-05-07T02:36:30;14.60;99.90
20345;DHT22;10330;48.816;9.278;2023-05-07T02:50:40;14.50;99.90
20345;DHT22;10330;48.816;9.278;2023-05-07T02:53:46;14.50;99.90
20345;DHT22;10330;48.816;9.278;2023-05-07T03:00:36;14.40;99.90
20345;DHT22;10330;48.816;9.278;2023-05-07T03:37:04;13.80;99.90
20345;DHT22;10330;48.816;9.278;2023-05-07T03:39:39;13.80;99.90
20345;DHT22;10330;48.816;9.278;2023-05-07T03:49:56;13.60;99.90
20345;DHT22;10330;48.816;9.278;2023-05-07T03:53:00;13.60;99.90
20345;DHT22;10330;48.816;9.278;2023-05-07T03:55:57;13.50;99.90
20345;DHT22;10330;48.816;9.278;2023-05-07T04:37:20;13.60;99.90
20345;DHT22;10330;48.816;9.278;2023-05-07T05:09:57;14.10;99.90
20345;DHT22;10330;48.816;9.278;2023-05-07T05:12:43;14.10;99.90
20345;DHT22;10330;48.816;9.278;2023-05-07T05:15:32;14.00;99.90
20345;DHT22;10330;48.816;9.278;2023-05-07T05:18:08;14.10;99.90
20345;DHT22;10330;48.816;9.278;2023-05-07T05:20:35;14.10;99.90
20345;DHT22;10330;48.816;9.278;2023-05-07T05:34:28;14.40;99.90
20345;DHT22;10330;48.816;9.278;2023-05-07T05:37:09;14.40;99.90
20345;DHT22;10330;48.816;9.278;2023-05-07T05:39:42;14.50;99.90
20345;DHT22;10330;48.816;9.278;2023-05-07T05:42:10;14.50;99.90
20345;DHT22;10330;48.816;9.278;2023-05-07T05:51:38;14.60;99.90
20345;DHT22;10330;48.816;9.278;2023-05-07T05:54:11;14.70;99.90
20345;DHT22;10330;48.816;9.278;2023-05-07T06:04:36;15.20;99.90
20345;DHT22;10330;48.816;9.278;2023-05-07T06:11:35;15.70;99.90
20345;DHT22;10330;48.816;9.278;2023-05-07T06:14:02;15.80;99.90
20345;DHT22;10330;48.816;9.278;2023-05-07T06:16:32;15.90;99.90
20345;DHT22;10330;48.816;9.278;2023-05-07T06:19:02;16.00;99.90
20345;DHT22;10330;48.816;9.278;2023-05-07T06:22:53;16.00;99.90
20345;DHT22;10330;48.816;9.278;2023-05-07T06:26:25;16.10;99.90
20345;DHT22;10330;48.816;9.278;2023-05-07T06:48:00;16.10;99.90
20345;DHT22;10330;48.816;9.278;2023-05-07T06:50:34;16.20;99.90
20345;DHT22;10330;48.816;9.278;2023-05-07T06:53:14;16.20;99.90
20345;DHT22;10330;48.816;9.278;2023-05-07T06:55:49;16.30;99.90
20345;DHT22;10330;48.816;9.278;2023-05-07T06:58:44;16.40;99.90
20345;DHT22;10330;48.816;9.278;2023-05-07T07:01:11;16.50;99.90
20345;DHT22;10330;48.816;9.278;2023-05-07T07:04:12;16.50;99.90
20345;DHT22;10330;48.816;9.278;2023-05-07T07:10:31;16.80;99.90
20345;DHT22;10330;48.816;9.278;2023-05-07T07:13:26;16.90;99.90
20345;DHT22;10330;48.816;9.278;2023-05-07T07:16:14;17.00;99.90
20345;DHT22;10330;48.816;9.278;2023-05-07T07:18:57;17.20;99.90
20345;DHT22;10330;48.816;9.278;2023-05-07T07:21:30;17.30;99.90
20345;DHT22;10330;48.816;9.278;2023-05-07T07:24:09;17.50;99.90
20345;DHT22;10330;48.816;9.278;2023-05-07T07:26:41;17.60;99.90
20345;DHT22;10330;48.816;9.278;2023-05-07T07:29:23;17.80;99.90
20345;DHT22;10330;48.816;9.278;2023-05-07T07:36:27;18.10;99.90
20345;DHT22;10330;48.816;9.278;2023-05-07T07:44:50;18.80;99.90
20345;DHT22;10330;48.816;9.278;2023-05-07T07:47:27;19.00;99.90
20345;DHT22;10330;48.816;9.278;2023-05-07T07:50:14;19.20;99.90
20345;DHT22;10330;48.816;9.278;2023-05-07T07:52:55;19.50;99.90
20345;DHT22;10330;48.816;9.278;2023-05-07T07:55:23;19.80;99.90
20345;DHT22;10330;48.816;9.278;2023-05-07T07:58:01;19.90;99.90
20345;DHT22;10330;48.816;9.278;2023-05-07T08:00:45;20.00;99.90
20345;DHT22;10330;48.816;9.278;2023-05-07T08:07:54;20.20;99.90
20345;DHT22;10330;48.816;9.278;2023-05-07T08:10:46;20.40;99.90
20345;DHT22;10330;48.816;9.278;2023-05-07T08:13:49;20.50;99.90
20345;DHT22;10330;48.816;9.278;2023-05-07T08:16:40;20.50;99.90
20345;DHT22;10330;48.816;9.278;2023-05-07T08:19:17;20.50;99.90
20345;DHT22;10330;48.816;9.278;2023-05-07T08:22:09;20.60;99.90
20345;DHT22;10330;48.816;9.278;2023-05-07T08:24:54;20.70;99.90
20345;DHT22;10330;48.816;9.278;2023-05-07T08:27:44;20.70;99.90
20345;DHT22;10330;48.816;9.278;2023-05-07T08:30:12;20.80;99.90
20345;DHT22;10330;48.816;9.278;2023-05-07T08:32:38;20.90;99.90
20345;DHT22;10330;48.816;9.278;2023-05-07T08:35:05;21.00;99.90
20345;DHT22;10330;48.816;9.278;2023-05-07T08:40:25;21.00;99.90
20345;DHT22;10330;48.816;9.278;2023-05-07T08:42:57;21.00;99.90
20345;DHT22;10330;48.816;9.278;2023-05-07T08:45:25;21.10;99.90
20345;DHT22;10330;48.816;9.278;2023-05-07T08:47:58;21.10;99.90
20345;DHT22;10330;48.816;9.278;2023-05-07T08:50:29;21.10;99.90
20345;DHT22;10330;48.816;9.278;2023-05-07T08:53:00;21.20;99.90
20345;DHT22;10330;48.816;9.278;2023-05-07T08:55:28;21.10;99.90
20345;DHT22;10330;48.816;9.278;2023-05-07T08:57:58;21.00;99.90
20345;DHT22;10330;48.816;9.278;2023-05-07T09:00:24;20.90;99.90
20345;DHT22;10330;48.816;9.278;2023-05-07T09:02:54;21.00;99.90
20345;DHT22;10330;48.816;9.278;2023-05-07T09:05:21;21.00;99.90
20345;DHT22;10330;48.816;9.278;2023-05-07T09:08:07;21.00;99.90
20345;DHT22;10330;48.816;9.278;2023-05-07T09:11:02;21.00;99.90
20345;DHT22;10330;48.816;9.278;2023-05-07T09:13:32;21.10;99.90
20345;DHT22;10330;48.816;9.278;2023-05-07T09:16:21;21.10;99.90
20345;DHT22;10330;48.816;9.278;2023-05-07T09:18:52;21.20;99.90
20345;DHT22;10330;48.816;9.278;2023-05-07T09:21:33;21.30;99.90
20345;DHT22;10330;48.816;9.278;2023-05-07T09:24:02;21.30;99.90
20345;DHT22;10330;48.816;9.278;2023-05-07T09:26:42;21.30;99.90
20345;DHT22;10330;48.816;9.278;2023-05-07T09:29:18;21.40;99.90
20345;DHT22;10330;48.816;9.278;2023-05-07T09:31:46;21.40;99.90
20345;DHT22;10330;48.816;9.278;2023-05-07T09:34:38;21.60;99.90
20345;DHT22;10330;48.816;9.278;2023-05-07T09:37:22;21.70;99.90
20345;DHT22;10330;48.816;9.278;2023-05-07T09:40:27;21.80;99.90
20345;DHT22;10330;48.816;9.278;2023-05-07T09:43:32;21.90;99.90
20345;DHT22;10330;48.816;9.278;2023-05-07T09:46:16;22.00;99.90
20345;DHT22;10330;48.816;9.278;2023-05-07T09:49:01;22.00;99.90
20345;DHT22;10330;48.816;9.278;2023-05-07T09:51:54;22.10;99.90
20345;DHT22;10330;48.816;9.278;2023-05-07T09:54:27;22.30;99.90
20345;DHT22;10330;48.816;9.278;2023-05-07T09:57:18;22.40;99.90
20345;DHT22;10330;48.816;9.278;2023-05-07T10:00:02;22.60;99.90
20345;DHT22;10330;48.816;9.278;2023-05-07T10:02:59;22.60;99.90
20345;DHT22;10330;48.816;9.278;2023-05-07T10:05:45;22.80;99.90
20345;DHT22;10330;48.816;9.278;2023-05-07T10:08:28;22.80;99.90
20345;DHT22;10330;48.816;9.278;2023-05-07T10:10:59;22.90;99.90
20345;DHT22;10330;48.816;9.278;2023-05-07T10:13:28;23.00;99.90
20345;DHT22;10330;48.816;9.278;2023-05-07T10:15:58;23.00;99.90
20345;DHT22;10330;48.816;9.278;2023-05-07T10:18:27;23.20;99.90
20345;DHT22;10330;48.816;9.278;2023-05-07T10:21:07;23.50;99.90
20345;DHT22;10330;48.816;9.278;2023-05-07T10:23:50;23.70;99.90
20345;DHT22;10330;48.816;9.278;2023-05-07T10:26:21;23.90;99.90
20345;DHT22;10330;48.816;9.278;2023-05-07T10:28:58;23.90;99.90
20345;DHT22;10330;48.816;9.278;2023-05-07T10:34:12;24.10;99.90
20345;DHT22;10330;48.816;9.278;2023-05-07T10:36:40;24.20;99.90
20345;DHT22;10330;48.816;9.278;2023-05-07T10:39:07;24.20;99.90
20345;DHT22;10330;48.816;9.278;2023-05-07T10:41:34;24.30;99.90
20345;DHT22;10330;48.816;9.278;2023-05-07T10:44:00;24.30;99.90
20345;DHT22;10330;48.816;9.278;2023-05-07T10:46:31;24.40;99.90
20345;DHT22;10330;48.816;9.278;2023-05-07T10:49:15;24.60;99.90
20345;DHT22;10330;48.816;9.278;2023-05-07T10:52:19;24.70;99.90
20345;DHT22;10330;48.816;9.278;2023-05-07T10:57:51;24.70;99.90
20345;DHT22;10330;48.816;9.278;2023-05-07T11:03:04;24.70;99.90
20345;DHT22;10330;48.816;9.278;2023-05-07T11:06:15;24.70;99.90
20345;DHT22;10330;48.816;9.278;2023-05-07T11:08:59;24.70;99.90
20345;DHT22;10330;48.816;9.278;2023-05-07T11:11:52;24.70;99.90
20345;DHT22;10330;48.816;9.278;2023-05-07T11:14:54;24.80;99.90
20345;DHT22;10330;48.816;9.278;2023-05-07T11:17:33;24.80;99.90
20345;DHT22;10330;48.816;9.278;2023-05-07T11:20:18;25.00;99.90
20345;DHT22;10330;48.816;9.278;2023-05-07T11:22:49;25.10;99.90
20345;DHT22;10330;48.816;9.278;2023-05-07T11:25:42;25.00;99.90
20345;DHT22;10330;48.816;9.278;2023-05-07T11:28:17;25.10;99.90
20345;DHT22;10330;48.816;9.278;2023-05-07T11:30:52;25.20;99.90
20345;DHT22;10330;48.816;9.278;2023-05-07T11:33:22;25.10;99.90
20345;DHT22;10330;48.816;9.278;2023-05-07T11:35:53;25.20;99.90
20345;DHT22;10330;48.816;9.278;2023-05-07T11:38:23;25.10;99.90
20345;DHT22;10330;48.816;9.278;2023-05-07T11:40:55;25.10;99.90
20345;DHT22;10330;48.816;9.278;2023-05-07T11:43:22;25.20;99.90
20345;DHT22;10330;48.816;9.278;2023-05-07T11:45:49;25.40;99.90
20345;DHT22;10330;48.816;9.278;2023-05-07T11:48:16;25.60;99.90
20345;DHT22;10330;48.816;9.278;2023-05-07T11:53:28;25.10;99.90
20345;DHT22;10330;48.816;9.278;2023-05-07T11:55:57;24.90;99.90
20345;DHT22;10330;48.816;9.278;2023-05-07T11:58:24;24.70;99.90
20345;DHT22;10330;48.816;9.278;2023-05-07T12:00:54;24.60;99.90
20345;DHT22;10330;48.816;9.278;2023-05-07T12:03:21;24.60;99.90
20345;DHT22;10330;48.816;9.278;2023-05-07T12:05:47;24.60;99.90
20345;DHT22;10330;48.816;9.278;2023-05-07T12:08:19;24.40;99.90
20345;DHT22;10330;48.816;9.278;2023-05-07T12:10:49;24.30;99.90
20345;DHT22;10330;48.816;9.278;2023-05-07T12:13:23;24.10;99.90
20345;DHT22;10330;48.816;9.278;2023-05-07T12:15:55;23.90;99.90
20345;DHT22;10330;48.816;9.278;2023-05-07T12:18:23;23.50;99.90
20345;DHT22;10330;48.816;9.278;2023-05-07T12:20:49;23.30;99.90
20345;DHT22;10330;48.816;9.278;2023-05-07T12:23:17;23.20;99.90
20345;DHT22;10330;48.816;9.278;2023-05-07T12:25:43;23.00;99.90
20345;DHT22;10330;48.816;9.278;2023-05-07T12:31:33;22.90;99.90
